createdAt,value
2022-07-31T00:00:22.010Z,4.40
2022-07-31T00:02:49.163Z,4.25
2022-07-31T00:05:16.273Z,4.18
2022-07-31T00:07:43.502Z,4.13
2022-07-31T00:10:11.098Z,3.55
2022-07-31T00:12:38.210Z,4.25
2022-07-31T00:15:08.075Z,4.22
2022-07-31T00:17:35.151Z,3.78
2022-07-31T00:20:02.409Z,3.85
2022-07-31T00:22:30.161Z,3.70
2022-07-31T00:24:57.635Z,4.20
2022-07-31T00:27:24.917Z,3.70
2022-07-31T00:29:52.152Z,3.63
2022-07-31T00:32:19.255Z,4.38
2022-07-31T00:34:46.401Z,3.38
2022-07-31T00:37:13.440Z,3.80
2022-07-31T00:39:40.582Z,3.92
2022-07-31T00:42:21.242Z,3.70
2022-07-31T00:44:49.149Z,3.72
2022-07-31T00:47:17.256Z,3.70
2022-07-31T00:49:45.894Z,3.90
2022-07-31T00:52:13.582Z,3.50
2022-07-31T00:54:40.893Z,3.58
2022-07-31T00:57:08.115Z,3.95
2022-07-31T00:59:35.351Z,3.88
2022-07-31T01:02:02.632Z,3.85
2022-07-31T01:04:31.179Z,3.25
2022-07-31T01:07:01.225Z,3.40
2022-07-31T01:09:29.296Z,3.53
2022-07-31T01:12:21.016Z,3.60
2022-07-31T01:15:01.505Z,3.40
2022-07-31T01:17:31.204Z,3.90
2022-07-31T01:19:58.960Z,3.40
2022-07-31T01:23:02.802Z,3.28
2022-07-31T01:26:06.865Z,2.97
2022-07-31T01:28:59.044Z,3.40
2022-07-31T01:31:35.201Z,3.60
2022-07-31T01:34:54.711Z,3.70
2022-07-31T01:37:37.071Z,3.95
2022-07-31T01:40:15.584Z,3.33
2022-07-31T01:42:53.831Z,3.72
2022-07-31T01:45:22.485Z,3.47
2022-07-31T01:47:51.983Z,3.85
2022-07-31T01:50:42.329Z,3.75
2022-07-31T01:53:09.098Z,3.42
2022-07-31T01:56:01.973Z,3.85
2022-07-31T01:58:29.472Z,3.40
2022-07-31T02:00:58.458Z,3.70
2022-07-31T02:03:43.676Z,3.35
2022-07-31T02:06:19.023Z,3.22
2022-07-31T02:08:49.191Z,3.38
2022-07-31T02:11:19.031Z,3.15
2022-07-31T02:13:48.408Z,3.65
2022-07-31T02:16:18.765Z,3.20
2022-07-31T02:18:49.799Z,3.17
2022-07-31T02:21:17.801Z,3.10
2022-07-31T02:23:45.001Z,3.33
2022-07-31T02:26:14.515Z,3.13
2022-07-31T02:28:43.878Z,2.97
2022-07-31T02:31:13.424Z,3.45
2022-07-31T02:33:45.753Z,3.25
2022-07-31T02:36:14.431Z,2.95
2022-07-31T02:38:44.291Z,3.03
2022-07-31T02:41:12.929Z,3.22
2022-07-31T02:43:40.901Z,2.83
2022-07-31T02:46:12.447Z,3.55
2022-07-31T02:48:40.224Z,3.40
2022-07-31T02:51:08.506Z,2.92
2022-07-31T02:53:37.610Z,3.15
2022-07-31T02:56:06.524Z,4.53
2022-07-31T02:58:33.880Z,3.47
2022-07-31T03:01:06.289Z,3.55
2022-07-31T03:03:33.720Z,2.95
2022-07-31T03:06:01.174Z,3.08
2022-07-31T03:08:28.942Z,3.20
2022-07-31T03:10:58.361Z,3.00
2022-07-31T03:13:29.236Z,3.50
2022-07-31T03:15:57.248Z,3.63
2022-07-31T03:18:26.652Z,3.25
2022-07-31T03:20:56.281Z,3.28
2022-07-31T03:23:27.491Z,3.38
2022-07-31T03:25:55.094Z,3.22
2022-07-31T03:28:22.373Z,3.00
2022-07-31T03:30:56.235Z,3.00
2022-07-31T03:33:23.993Z,3.17
2022-07-31T03:35:51.527Z,3.63
2022-07-31T03:38:38.517Z,3.70
2022-07-31T03:41:06.069Z,3.63
2022-07-31T03:43:44.073Z,3.15
2022-07-31T03:46:20.692Z,3.42
2022-07-31T03:48:51.877Z,3.28
2022-07-31T03:51:19.670Z,3.58
2022-07-31T03:53:48.090Z,3.90
2022-07-31T03:56:17.607Z,3.97
2022-07-31T03:58:49.748Z,3.60
2022-07-31T04:01:21.170Z,3.75
2022-07-31T04:03:49.105Z,4.00
2022-07-31T04:06:16.154Z,4.22
2022-07-31T04:08:43.395Z,3.90
2022-07-31T04:11:10.543Z,4.32
2022-07-31T04:13:37.899Z,4.10
2022-07-31T04:16:05.148Z,4.13
2022-07-31T04:18:32.231Z,3.95
2022-07-31T04:20:59.892Z,4.55
2022-07-31T04:23:32.328Z,3.65
2022-07-31T04:26:00.353Z,4.00
2022-07-31T04:28:27.518Z,4.20
2022-07-31T04:30:54.657Z,4.30
2022-07-31T04:33:21.899Z,6.32
2022-07-31T04:35:49.019Z,4.22
2022-07-31T04:38:17.077Z,3.55
2022-07-31T04:40:44.292Z,4.00
2022-07-31T04:43:12.813Z,3.92
2022-07-31T04:45:40.094Z,4.35
2022-07-31T04:48:07.272Z,3.75
2022-07-31T04:50:34.412Z,4.07
2022-07-31T04:53:01.468Z,4.93
2022-07-31T04:55:29.396Z,3.63
2022-07-31T04:57:56.519Z,4.25
2022-07-31T05:00:23.781Z,3.67
2022-07-31T05:02:51.446Z,3.58
2022-07-31T05:05:18.670Z,3.63
2022-07-31T05:07:46.793Z,4.30
2022-07-31T05:10:33.865Z,4.05
2022-07-31T05:13:01.071Z,4.03
2022-07-31T05:15:28.449Z,4.07
2022-07-31T05:17:55.563Z,4.32
2022-07-31T05:20:23.642Z,5.13
2022-07-31T05:22:52.051Z,4.57
2022-07-31T05:25:19.251Z,4.45
2022-07-31T05:27:46.316Z,4.45
2022-07-31T05:30:17.246Z,4.35
2022-07-31T05:32:58.557Z,4.65
2022-07-31T05:35:25.880Z,4.40
2022-07-31T05:37:52.932Z,4.45
2022-07-31T05:40:20.124Z,4.97
2022-07-31T05:42:47.212Z,4.78
2022-07-31T05:45:14.366Z,4.53
2022-07-31T05:47:41.728Z,4.05
2022-07-31T05:50:09.984Z,4.70
2022-07-31T05:52:37.183Z,4.72
2022-07-31T05:55:04.935Z,4.57
2022-07-31T05:57:33.131Z,4.80
2022-07-31T06:00:02.010Z,4.80
2022-07-31T06:02:31.496Z,5.13
2022-07-31T06:04:58.649Z,5.13
2022-07-31T06:07:25.742Z,4.72
2022-07-31T06:09:53.138Z,5.00
2022-07-31T06:12:20.296Z,4.95
2022-07-31T06:14:47.399Z,4.55
2022-07-31T06:17:14.610Z,4.28
2022-07-31T06:19:41.721Z,4.53
2022-07-31T06:22:09.193Z,5.15
2022-07-31T06:24:38.295Z,4.32
2022-07-31T06:27:08.702Z,4.18
2022-07-31T06:29:56.687Z,4.80
2022-07-31T06:32:24.606Z,4.50
2022-07-31T06:34:51.765Z,4.25
2022-07-31T06:37:19.821Z,3.88
2022-07-31T06:39:56.004Z,4.60
2022-07-31T06:42:26.100Z,3.85
2022-07-31T06:44:54.059Z,4.20
2022-07-31T06:47:25.121Z,3.72
2022-07-31T06:49:53.609Z,3.90
2022-07-31T06:52:20.900Z,3.83
2022-07-31T06:54:48.069Z,3.85
2022-07-31T06:57:15.631Z,3.85
2022-07-31T06:59:42.704Z,3.67
2022-07-31T07:02:10.092Z,3.42
2022-07-31T07:04:57.397Z,3.47
2022-07-31T07:07:24.272Z,3.80
2022-07-31T07:09:59.025Z,3.83
2022-07-31T07:12:26.877Z,3.88
2022-07-31T07:14:55.012Z,3.83
2022-07-31T07:17:25.904Z,3.50
2022-07-31T07:19:55.913Z,3.13
2022-07-31T07:22:31.131Z,3.38
2022-07-31T07:25:01.120Z,3.30
2022-07-31T07:27:28.542Z,3.67
2022-07-31T07:29:56.432Z,3.00
2022-07-31T07:32:23.600Z,2.90
2022-07-31T07:34:59.975Z,2.75
2022-07-31T07:37:28.731Z,2.72
2022-07-31T07:39:56.880Z,3.25
2022-07-31T07:42:23.977Z,3.05
2022-07-31T07:44:51.046Z,3.28
2022-07-31T07:47:18.134Z,3.13
2022-07-31T07:49:45.258Z,3.03
2022-07-31T07:52:12.702Z,2.72
2022-07-31T07:54:42.876Z,2.40
2022-07-31T07:57:16.969Z,3.30
2022-07-31T07:59:44.404Z,3.08
2022-07-31T08:02:12.403Z,2.30
2022-07-31T08:04:39.737Z,2.78
2022-07-31T08:07:07.385Z,3.00
2022-07-31T08:09:35.986Z,2.33
2022-07-31T08:12:04.785Z,2.78
2022-07-31T08:14:32.029Z,2.28
2022-07-31T08:16:59.122Z,2.80
2022-07-31T08:19:26.243Z,2.95
2022-07-31T08:21:53.293Z,2.83
2022-07-31T08:24:20.354Z,2.83
2022-07-31T08:27:08.755Z,2.75
2022-07-31T08:29:37.909Z,3.10
2022-07-31T08:32:05.862Z,3.00
2022-07-31T08:34:33.332Z,2.88
2022-07-31T08:37:50.392Z,3.03
2022-07-31T08:39:50.377Z,2.60
2022-07-31T08:42:18.761Z,2.88
2022-07-31T08:44:46.912Z,2.60
2022-07-31T08:47:16.338Z,2.80
2022-07-31T08:49:49.510Z,2.63
2022-07-31T08:52:24.994Z,2.45
2022-07-31T08:57:21.377Z,2.30
2022-07-31T08:59:52.450Z,2.00
2022-07-31T09:02:19.595Z,2.55
2022-07-31T09:04:51.958Z,2.08
2022-07-31T09:07:19.865Z,2.55
2022-07-31T09:09:52.249Z,2.60
2022-07-31T09:12:34.641Z,2.70
2022-07-31T09:15:02.391Z,2.65
2022-07-31T09:17:36.723Z,2.90
2022-07-31T09:20:05.791Z,2.42
2022-07-31T09:22:33.930Z,1.85
2022-07-31T09:25:18.868Z,2.00
2022-07-31T09:27:48.553Z,2.20
2022-07-31T09:30:16.824Z,2.63
2022-07-31T09:32:47.298Z,1.83
2022-07-31T09:35:15.539Z,2.40
2022-07-31T09:37:47.686Z,2.58
2022-07-31T09:40:15.324Z,3.20
2022-07-31T09:42:55.449Z,3.63
2022-07-31T09:45:24.396Z,2.10
2022-07-31T09:48:15.258Z,2.28
2022-07-31T09:50:55.365Z,2.00
2022-07-31T09:53:24.125Z,1.92
2022-07-31T09:55:57.574Z,1.80
2022-07-31T09:58:24.865Z,2.00
2022-07-31T10:00:53.996Z,2.30
2022-07-31T10:03:22.454Z,2.05
2022-07-31T10:05:50.277Z,2.20
2022-07-31T10:08:17.995Z,1.83
2022-07-31T10:10:46.014Z,1.80
2022-07-31T10:13:19.361Z,1.70
2022-07-31T10:15:50.111Z,2.10
2022-07-31T10:18:35.682Z,2.25
2022-07-31T10:21:06.936Z,1.70
2022-07-31T10:23:39.147Z,2.03
2022-07-31T10:26:06.632Z,2.13
2022-07-31T10:28:38.100Z,1.70
2022-07-31T10:31:06.172Z,1.90
2022-07-31T10:33:44.077Z,1.90
2022-07-31T10:36:21.617Z,2.30
2022-07-31T10:39:06.305Z,1.90
2022-07-31T10:42:06.380Z,1.65
2022-07-31T10:44:46.005Z,1.65
2022-07-31T10:47:17.750Z,1.70
2022-07-31T10:49:49.764Z,1.60
2022-07-31T10:52:35.101Z,1.70
2022-07-31T10:55:02.411Z,1.83
2022-07-31T10:57:34.715Z,1.75
2022-07-31T11:00:29.510Z,1.58
2022-07-31T11:05:26.048Z,1.83
2022-07-31T11:08:06.444Z,1.67
2022-07-31T11:10:34.504Z,1.60
2022-07-31T11:13:11.138Z,1.73
2022-07-31T11:15:38.595Z,1.92
2022-07-31T11:18:24.930Z,1.55
2022-07-31T11:21:13.714Z,1.83
2022-07-31T11:23:57.611Z,1.60
2022-07-31T11:26:32.804Z,2.00
2022-07-31T11:30:01.612Z,1.65
2022-07-31T11:32:01.583Z,1.50
2022-07-31T11:34:28.650Z,1.85
2022-07-31T11:36:55.921Z,1.50
2022-07-31T11:39:34.166Z,1.70
2022-07-31T11:42:05.125Z,1.90
2022-07-31T11:44:35.795Z,1.80
2022-07-31T11:47:03.258Z,1.90
2022-07-31T11:49:59.910Z,2.10
2022-07-31T11:52:30.978Z,2.20
2022-07-31T11:55:09.373Z,1.73
2022-07-31T11:57:50.957Z,2.17
2022-07-31T12:00:26.982Z,2.00
2022-07-31T12:02:57.528Z,1.90
2022-07-31T12:05:37.792Z,2.00
2022-07-31T12:08:07.993Z,1.70
2022-07-31T12:10:35.665Z,1.55
2022-07-31T12:13:03.183Z,1.80
2022-07-31T12:15:30.514Z,1.80
2022-07-31T12:18:04.236Z,1.85
2022-07-31T12:20:36.961Z,1.50
2022-07-31T12:23:06.428Z,1.70
2022-07-31T12:25:42.165Z,2.00
2022-07-31T12:28:10.234Z,1.60
2022-07-31T12:30:37.596Z,1.75
2022-07-31T12:33:07.190Z,1.80
2022-07-31T12:35:56.503Z,1.70
2022-07-31T12:38:47.623Z,1.80
2022-07-31T12:41:15.250Z,1.70
2022-07-31T12:43:51.836Z,1.60
2022-07-31T12:46:40.363Z,1.77
2022-07-31T12:49:08.601Z,1.65
2022-07-31T12:51:44.917Z,1.75
2022-07-31T12:54:18.096Z,1.80
2022-07-31T12:56:46.705Z,1.80
2022-07-31T12:59:14.535Z,1.80
2022-07-31T13:01:42.021Z,2.33
2022-07-31T13:04:19.038Z,1.98
2022-07-31T13:06:51.666Z,1.40
2022-07-31T13:09:19.625Z,1.90
2022-07-31T13:11:48.476Z,1.92
2022-07-31T13:14:17.133Z,1.67
2022-07-31T13:16:45.721Z,2.20
2022-07-31T13:19:13.803Z,1.80
2022-07-31T13:21:49.571Z,1.83
2022-07-31T13:24:19.775Z,1.88
2022-07-31T13:26:48.744Z,2.33
2022-07-31T13:29:17.061Z,2.10
2022-07-31T13:31:44.642Z,2.20
2022-07-31T13:34:12.861Z,2.00
2022-07-31T13:36:40.173Z,1.52
2022-07-31T13:39:11.017Z,1.70
2022-07-31T13:41:39.480Z,2.05
2022-07-31T13:44:08.282Z,1.50
2022-07-31T13:46:35.954Z,2.22
2022-07-31T13:49:08.225Z,1.40
2022-07-31T13:51:36.801Z,1.92
2022-07-31T13:54:04.684Z,1.92
2022-07-31T13:56:39.791Z,1.92
2022-07-31T13:59:12.553Z,1.70
2022-07-31T14:02:03.957Z,2.10
2022-07-31T14:04:31.367Z,1.67
2022-07-31T14:07:01.322Z,1.60
2022-07-31T14:09:30.828Z,2.13
2022-07-31T14:11:57.912Z,1.55
2022-07-31T14:14:25.246Z,2.00
2022-07-31T14:16:52.365Z,1.83
2022-07-31T14:19:20.496Z,1.45
2022-07-31T14:21:56.303Z,1.45
2022-07-31T14:24:36.819Z,1.55
2022-07-31T14:27:04.176Z,1.50
2022-07-31T14:29:31.245Z,1.60
2022-07-31T14:32:03.450Z,1.60
2022-07-31T14:34:35.676Z,1.80
2022-07-31T14:37:04.870Z,1.55
2022-07-31T14:39:32.238Z,1.60
2022-07-31T14:41:59.318Z,1.40
2022-07-31T14:44:28.820Z,1.60
2022-07-31T14:46:56.353Z,1.35
2022-07-31T14:49:23.697Z,1.58
2022-07-31T14:51:50.797Z,1.90
2022-07-31T14:54:17.888Z,1.73
2022-07-31T14:57:00.822Z,1.42
2022-07-31T14:59:29.653Z,1.77
2022-07-31T15:01:57.828Z,1.70
2022-07-31T15:04:25.382Z,1.67
2022-07-31T15:07:03.118Z,1.50
2022-07-31T15:09:39.766Z,1.85
2022-07-31T15:12:07.585Z,1.80
2022-07-31T15:14:35.453Z,1.95
2022-07-31T15:17:03.115Z,1.92
2022-07-31T15:19:30.522Z,1.52
2022-07-31T15:22:15.963Z,1.52
2022-07-31T15:24:49.626Z,1.88
2022-07-31T15:27:19.029Z,1.88
2022-07-31T15:30:03.931Z,1.73
2022-07-31T15:32:38.423Z,1.90
2022-07-31T15:35:09.270Z,1.75
2022-07-31T15:37:38.467Z,1.60
2022-07-31T15:40:09.176Z,1.67
2022-07-31T15:42:40.503Z,1.60
2022-07-31T15:45:14.205Z,1.80
2022-07-31T15:47:42.649Z,1.52
2022-07-31T15:50:12.241Z,1.73
2022-07-31T15:52:39.924Z,1.85
2022-07-31T15:55:09.107Z,1.73
2022-07-31T15:57:36.504Z,1.98
2022-07-31T16:00:06.200Z,1.85
2022-07-31T16:02:33.426Z,2.83
2022-07-31T16:05:17.248Z,2.13
2022-07-31T16:08:29.337Z,2.53
2022-07-31T16:10:35.377Z,1.80
2022-07-31T16:13:02.491Z,1.70
2022-07-31T16:15:29.657Z,2.28
2022-07-31T16:17:56.736Z,2.10
2022-07-31T16:20:26.222Z,2.22
2022-07-31T16:23:01.354Z,2.05
2022-07-31T16:25:34.474Z,1.75
2022-07-31T16:28:04.427Z,1.95
2022-07-31T16:30:32.033Z,1.80
2022-07-31T16:32:59.229Z,1.92
2022-07-31T16:35:26.905Z,1.80
2022-07-31T16:37:54.994Z,1.80
2022-07-31T16:40:28.901Z,1.63
2022-07-31T16:43:48.585Z,2.00
2022-07-31T16:45:52.485Z,1.85
2022-07-31T16:48:19.928Z,1.73
2022-07-31T16:50:53.677Z,1.73
2022-07-31T16:54:11.488Z,1.67
2022-07-31T16:56:14.908Z,1.73
2022-07-31T16:58:43.674Z,1.73
2022-07-31T17:01:58.487Z,2.30
2022-07-31T17:04:03.652Z,2.08
2022-07-31T17:06:36.093Z,2.72
2022-07-31T17:09:17.283Z,2.38
2022-07-31T17:11:48.112Z,2.03
2022-07-31T17:14:17.372Z,2.10
2022-07-31T17:16:48.047Z,2.33
2022-07-31T17:19:41.682Z,2.58
2022-07-31T17:22:08.109Z,2.53
2022-07-31T17:24:38.213Z,1.83
2022-07-31T17:27:08.481Z,2.08
2022-07-31T17:29:37.842Z,2.05
2022-07-31T17:32:05.772Z,2.13
2022-07-31T17:34:33.408Z,2.63
2022-07-31T17:37:00.555Z,2.38
2022-07-31T17:39:30.810Z,2.50
2022-07-31T17:41:59.385Z,2.28
2022-07-31T17:44:26.682Z,2.53
2022-07-31T17:46:54.949Z,1.85
2022-07-31T17:49:22.128Z,1.95
2022-07-31T17:51:59.118Z,2.33
2022-07-31T17:54:30.318Z,2.00
2022-07-31T17:56:58.063Z,2.20
2022-07-31T17:59:26.021Z,2.10
2022-07-31T18:01:59.543Z,2.50
2022-07-31T18:04:32.593Z,1.92
2022-07-31T18:07:04.308Z,2.30
2022-07-31T18:09:32.429Z,2.50
2022-07-31T18:11:59.887Z,1.95
2022-07-31T18:14:27.289Z,2.30
2022-07-31T18:16:55.145Z,1.77
2022-07-31T18:19:22.751Z,2.10
2022-07-31T18:21:51.254Z,2.10
2022-07-31T18:24:19.688Z,2.30
2022-07-31T18:26:47.318Z,2.45
2022-07-31T18:29:16.786Z,2.40
2022-07-31T18:31:44.803Z,1.90
2022-07-31T18:34:12.408Z,2.10
2022-07-31T18:36:40.419Z,2.17
2022-07-31T18:39:07.772Z,2.50
2022-07-31T18:41:34.928Z,2.30
2022-07-31T18:44:02.185Z,2.28
2022-07-31T18:46:32.043Z,2.17
2022-07-31T18:49:00.147Z,2.42
2022-07-31T18:51:29.777Z,2.22
2022-07-31T18:53:57.891Z,2.20
2022-07-31T18:56:26.395Z,2.40
2022-07-31T18:58:54.417Z,1.77
2022-07-31T19:01:23.626Z,1.98
2022-07-31T19:03:52.194Z,1.98
2022-07-31T19:06:19.893Z,1.85
2022-07-31T19:08:49.448Z,1.90
2022-07-31T19:11:16.749Z,2.08
2022-07-31T19:13:43.987Z,1.90
2022-07-31T19:16:11.277Z,2.20
2022-07-31T19:18:40.301Z,1.85
2022-07-31T19:21:22.805Z,2.05
2022-07-31T19:23:57.686Z,1.80
2022-07-31T19:26:24.926Z,2.08
2022-07-31T19:28:52.046Z,1.90
2022-07-31T19:31:19.222Z,1.98
2022-07-31T19:33:46.475Z,2.10
2022-07-31T19:36:15.361Z,2.05
2022-07-31T19:38:44.476Z,2.10
2022-07-31T19:41:12.549Z,2.22
2022-07-31T19:43:39.766Z,2.17
2022-07-31T19:46:11.409Z,2.05
2022-07-31T19:48:45.143Z,2.15
2022-07-31T19:51:14.286Z,2.42
2022-07-31T19:53:42.115Z,2.05
2022-07-31T19:56:11.322Z,2.30
2022-07-31T19:58:42.056Z,2.22
2022-07-31T20:01:10.739Z,1.88
2022-07-31T20:03:38.227Z,2.60
2022-07-31T20:06:05.911Z,2.20
2022-07-31T20:08:34.851Z,2.35
2022-07-31T20:11:04.472Z,2.42
2022-07-31T20:13:33.854Z,2.30
2022-07-31T20:16:01.618Z,1.90
2022-07-31T20:18:29.574Z,2.20
2022-07-31T20:21:03.771Z,2.15
2022-07-31T20:23:34.322Z,2.30
2022-07-31T20:26:02.011Z,2.25
2022-07-31T20:28:29.337Z,2.05
2022-07-31T20:30:56.848Z,2.33
2022-07-31T20:33:24.146Z,2.20
2022-07-31T20:35:51.478Z,2.20
2022-07-31T20:38:24.113Z,2.97
2022-07-31T20:40:55.357Z,1.98
2022-07-31T20:43:28.934Z,2.40
2022-07-31T20:45:58.292Z,2.20
2022-07-31T20:48:32.316Z,2.53
2022-07-31T20:51:01.671Z,2.45
2022-07-31T20:53:29.804Z,2.53
2022-07-31T20:55:57.596Z,2.70
2022-07-31T20:58:26.057Z,2.50
2022-07-31T21:00:53.744Z,2.72
2022-07-31T21:03:21.436Z,2.50
2022-07-31T21:05:49.425Z,2.42
2022-07-31T21:08:17.223Z,2.30
2022-07-31T21:10:45.030Z,2.45
2022-07-31T21:13:12.999Z,2.30
2022-07-31T21:15:44.619Z,2.60
2022-07-31T21:18:17.416Z,2.30
2022-07-31T21:20:50.726Z,2.53
2022-07-31T21:23:25.931Z,2.50
2022-07-31T21:25:56.095Z,2.30
2022-07-31T21:28:25.926Z,2.65
2022-07-31T21:30:56.188Z,2.40
2022-07-31T21:33:27.811Z,2.35
2022-07-31T21:35:55.957Z,2.85
2022-07-31T21:38:24.196Z,2.63
2022-07-31T21:40:51.977Z,2.65
2022-07-31T21:43:22.617Z,2.40
2022-07-31T21:45:57.182Z,2.60
2022-07-31T21:48:27.260Z,2.22
2022-07-31T21:50:55.335Z,2.08
2022-07-31T21:53:23.200Z,2.50
2022-07-31T21:55:50.567Z,2.58
2022-07-31T21:58:17.790Z,2.58
2022-07-31T22:00:45.267Z,2.45
2022-07-31T22:03:12.555Z,2.28
2022-07-31T22:05:58.567Z,2.63
2022-07-31T22:08:25.777Z,2.63
2022-07-31T22:10:53.256Z,3.13
2022-07-31T22:13:20.735Z,2.60
2022-07-31T22:15:51.553Z,2.42
2022-07-31T22:18:35.819Z,2.50
2022-07-31T22:21:07.143Z,2.80
2022-07-31T22:23:35.730Z,2.78
2022-07-31T22:26:03.437Z,3.00
2022-07-31T22:28:31.295Z,2.30
2022-07-31T22:30:58.748Z,3.15
2022-07-31T22:33:26.073Z,2.67
2022-07-31T22:35:58.901Z,2.95
2022-07-31T22:38:30.515Z,2.60
2022-07-31T22:40:59.820Z,2.95
2022-07-31T22:44:11.287Z,2.80
2022-07-31T22:46:15.777Z,3.05
2022-07-31T22:48:46.013Z,3.53
2022-07-31T22:51:14.780Z,3.08
2022-07-31T22:53:44.016Z,2.85
2022-07-31T22:56:11.272Z,3.08
2022-07-31T22:58:57.281Z,3.15
2022-07-31T23:03:53.672Z,2.90
2022-07-31T23:06:30.843Z,3.00
2022-07-31T23:09:00.333Z,2.88
2022-07-31T23:11:27.845Z,3.05
2022-07-31T23:13:54.933Z,3.05
2022-07-31T23:16:22.340Z,3.20
2022-07-31T23:18:50.647Z,3.35
2022-07-31T23:21:19.430Z,3.05
2022-07-31T23:23:48.775Z,3.05
2022-07-31T23:26:21.741Z,3.58
2022-07-31T23:28:48.845Z,3.15
2022-07-31T23:31:16.935Z,2.90
2022-07-31T23:33:46.647Z,3.72
2022-07-31T23:36:15.216Z,3.70
2022-07-31T23:38:43.841Z,3.50
2022-07-31T23:41:11.829Z,3.42
2022-07-31T23:43:39.063Z,3.40
2022-07-31T23:46:06.351Z,3.33
2022-07-31T23:48:35.962Z,2.95
2022-07-31T23:51:03.354Z,3.60
2022-07-31T23:53:30.441Z,3.67
2022-07-31T23:55:57.504Z,3.10
2022-07-31T23:58:24.703Z,3.28
